Time;durP1;ratioP1;P1;durP2;ratioP2;P2;SDS_P1;SDS_P2;PMS_P1;PMS_P2;Temp;Humidity;BMP_temperature;BMP_pressure;BME280_temperature;BME280_humidity;BME280_pressure;Samples;Min_cycle;Max_cycle;Signal;HPM_P1;HPM_P2
2022/06/05 00:00:18;;;;;;;19.83;17.80;;;19.50;93.70;;;;;;6251907;22;20153;-88
2022/06/05 00:02:55;;;;;;;26.52;23.40;;;19.50;94.50;;;;;;6254427;22;20163;-88
2022/06/05 00:05:56;;;;;;;22.75;19.67;;;19.50;95.70;;;;;;6251664;23;20157;-88
2022/06/05 00:08:55;;;;;;;25.52;22.63;;;19.40;95.90;;;;;;6252315;22;20241;-88
2022/06/05 00:11:22;;;;;;;34.40;22.50;;;19.30;96.80;;;;;;6253250;23;20601;-88
2022/06/05 00:13:52;;;;;;;23.30;20.70;;;19.20;96.80;;;;;;6250715;23;20254;-88
2022/06/05 00:16:22;;;;;;;22.98;20.52;;;19.10;96.90;;;;;;6251848;22;20536;-88
2022/06/05 00:18:48;;;;;;;23.75;21.20;;;19.00;97.10;;;;;;6247450;23;20222;-88
2022/06/05 00:21:14;;;;;;;25.07;22.67;;;18.90;97.70;;;;;;6248844;23;20179;-87
2022/06/05 00:23:41;;;;;;;24.88;22.27;;;18.90;98.40;;;;;;6250843;22;20760;-88
2022/06/05 00:26:14;;;;;;;23.00;20.60;;;18.80;98.40;;;;;;6249758;22;20157;-88
2022/06/05 00:28:49;;;;;;;24.17;21.58;;;18.70;98.10;;;;;;6250288;23;20207;-88
2022/06/05 00:31:31;;;;;;;23.90;21.23;;;18.70;98.20;;;;;;6253080;23;20206;-88
2022/06/05 00:33:57;;;;;;;22.73;20.63;;;18.60;98.00;;;;;;6251618;23;20172;-88
2022/06/05 00:37:08;;;;;;;23.73;21.40;;;18.60;98.10;;;;;;6254745;23;20158;-87
2022/06/05 00:39:49;;;;;;;24.48;20.70;;;18.60;97.90;;;;;;6164623;22;20379;-86
2022/06/05 00:42:19;;;;;;;25.15;22.30;;;18.50;97.80;;;;;;6256861;23;20491;-87
2022/06/05 00:44:49;;;;;;;25.08;22.38;;;18.50;97.30;;;;;;6255199;22;20152;-86
2022/06/05 00:47:19;;;;;;;26.73;22.77;;;18.50;96.70;;;;;;6256445;22;20163;-86
2022/06/05 00:50:08;;;;;;;22.88;20.63;;;18.40;96.80;;;;;;6248923;22;20159;-86
2022/06/05 00:52:35;;;;;;;22.05;19.83;;;18.40;96.40;;;;;;6251921;23;20176;-87
2022/06/05 00:55:02;;;;;;;21.63;19.52;;;18.40;96.00;;;;;;6247946;23;20225;-88
2022/06/05 00:57:31;;;;;;;24.75;20.25;;;18.40;96.20;;;;;;6248349;22;20222;-87
2022/06/05 00:59:58;;;;;;;24.92;22.42;;;18.40;96.60;;;;;;6247636;22;20232;-85
2022/06/05 01:02:24;;;;;;;26.95;24.10;;;18.40;97.90;;;;;;6247164;22;20163;-86
2022/06/05 01:04:50;;;;;;;21.50;19.20;;;18.40;97.70;;;;;;6247707;22;20175;-86
2022/06/05 01:07:17;;;;;;;26.65;20.25;;;18.40;97.60;;;;;;6253874;22;20145;-86
2022/06/05 01:09:45;;;;;;;22.15;19.15;;;18.50;97.00;;;;;;6257490;23;20206;-86
2022/06/05 01:12:31;;;;;;;20.48;18.35;;;18.50;95.40;;;;;;6252096;22;20591;-86
2022/06/05 01:15:22;;;;;;;21.92;18.13;;;18.50;94.90;;;;;;6268143;23;20192;-87
2022/06/05 01:17:48;;;;;;;23.08;18.60;;;18.40;94.80;;;;;;6269847;22;20232;-87
2022/06/05 01:20:13;;;;;;;20.13;17.70;;;18.40;94.10;;;;;;6272041;22;20159;-86
2022/06/05 01:23:12;;;;;;;18.57;16.77;;;18.40;93.20;;;;;;6265483;22;20171;-86
2022/06/05 01:26:14;;;;;;;21.88;17.70;;;18.40;92.20;;;;;;6271369;22;20171;-86
2022/06/05 01:28:59;;;;;;;20.48;18.48;;;18.40;92.90;;;;;;6189685;22;20164;-86
2022/06/05 01:31:30;;;;;;;23.77;17.70;;;18.40;93.10;;;;;;6270921;23;20229;-86
2022/06/05 01:34:01;;;;;;;19.45;17.55;;;18.40;93.30;;;;;;6268093;22;20264;-87
2022/06/05 01:36:33;;;;;;;24.25;19.65;;;18.50;92.60;;;;;;6252905;23;20141;-86
2022/06/05 01:39:28;;;;;;;22.05;18.75;;;18.40;92.50;;;;;;6247214;23;20173;-85
2022/06/05 01:41:58;;;;;;;21.67;18.33;;;18.40;92.70;;;;;;6201354;22;20500;-84
2022/06/05 01:44:55;;;;;;;20.95;18.90;;;18.40;91.80;;;;;;6246309;23;20603;-85
2022/06/05 01:47:25;;;;;;;19.20;17.30;;;18.40;91.90;;;;;;6246691;23;20249;-85
2022/06/05 01:50:00;;;;;;;19.02;17.10;;;18.40;91.30;;;;;;6247033;23;20141;-86
2022/06/05 01:52:46;;;;;;;18.20;16.40;;;18.40;90.50;;;;;;6247876;22;20160;-86
2022/06/05 01:55:38;;;;;;;20.25;18.20;;;18.40;89.90;;;;;;6248079;23;20152;-87
2022/06/05 01:58:07;;;;;;;20.30;18.30;;;18.40;90.20;;;;;;6252250;22;20513;-87
2022/06/05 02:00:33;;;;;;;20.10;18.10;;;18.30;91.10;;;;;;6249825;22;20211;-86
2022/06/05 02:03:02;;;;;;;19.95;17.95;;;18.30;92.10;;;;;;6250872;22;20156;-85
2022/06/05 02:06:11;;;;;;;19.80;17.83;;;18.30;92.20;;;;;;6248360;23;20188;-86
2022/06/05 02:09:03;;;;;;;21.55;19.30;;;18.30;91.70;;;;;;6102972;23;20218;-85
2022/06/05 02:11:32;;;;;;;19.42;17.25;;;18.40;91.20;;;;;;6249487;22;20232;-86
2022/06/05 02:14:07;;;;;;;20.58;18.48;;;18.40;90.10;;;;;;6247207;23;20203;-85
2022/06/05 02:16:36;;;;;;;18.80;16.80;;;18.40;89.90;;;;;;6247829;22;20152;-86
2022/06/05 02:19:06;;;;;;;18.27;16.48;;;18.40;88.90;;;;;;6248835;23;20634;-86
2022/06/05 02:21:33;;;;;;;19.48;17.50;;;18.40;88.40;;;;;;6250230;22;20141;-86
2022/06/05 02:23:59;;;;;;;19.83;17.98;;;18.40;88.60;;;;;;6248967;23;20156;-87
2022/06/05 02:26:27;;;;;;;20.07;18.27;;;18.40;88.20;;;;;;6253404;23;20210;-87
2022/06/05 02:28:53;;;;;;;21.05;18.95;;;18.40;88.10;;;;;;6254439;22;20252;-87
2022/06/05 02:31:56;;;;;;;22.02;19.88;;;18.40;88.70;;;;;;6254509;22;20595;-87
2022/06/05 02:34:31;;;;;;;20.75;18.58;;;18.30;88.90;;;;;;6247943;23;20261;-87
2022/06/05 02:37:20;;;;;;;21.48;19.40;;;18.30;88.30;;;;;;6247290;23;20140;-86
2022/06/05 02:39:52;;;;;;;20.77;18.75;;;18.20;88.00;;;;;;6247442;23;20216;-85
2022/06/05 02:42:20;;;;;;;21.27;18.88;;;18.20;87.90;;;;;;6247628;22;20149;-87
2022/06/05 02:44:59;;;;;;;20.25;18.25;;;18.10;88.20;;;;;;6250027;22;20160;-86
2022/06/05 02:47:34;;;;;;;21.13;18.90;;;18.10;88.60;;;;;;6253359;22;20168;-86
2022/06/05 02:50:00;;;;;;;21.80;19.63;;;18.10;88.50;;;;;;6254913;23;20140;-85
2022/06/05 02:52:31;;;;;;;21.07;19.03;;;18.00;88.20;;;;;;6251954;23;20166;-86
2022/06/05 02:55:03;;;;;;;21.15;18.73;;;18.00;88.50;;;;;;6258035;23;20452;-86
2022/06/05 02:57:29;;;;;;;20.77;18.67;;;18.00;89.10;;;;;;6263099;22;20164;-86
2022/06/05 02:59:55;;;;;;;21.88;19.67;;;18.10;88.60;;;;;;6269057;23;20167;-85
2022/06/05 03:05:09;;;;;;;22.25;19.70;;;18.00;88.30;;;;;;6259730;22;20166;-85
2022/06/05 03:07:35;;;;;;;20.30;18.20;;;18.00;88.50;;;;;;6273269;22;20192;-86
2022/06/05 03:10:01;;;;;;;21.83;19.45;;;18.00;88.50;;;;;;6273794;22;20380;-86
2022/06/05 03:12:27;;;;;;;22.63;20.20;;;18.00;88.60;;;;;;6273392;22;20183;-86
2022/06/05 03:14:56;;;;;;;20.90;18.70;;;18.00;88.60;;;;;;6274783;22;20382;-86
2022/06/05 03:17:23;;;;;;;22.48;20.17;;;18.10;87.70;;;;;;6272212;23;20395;-86
2022/06/05 03:19:50;;;;;;;22.83;18.75;;;18.10;87.80;;;;;;6270836;23;20160;-86
2022/06/05 03:22:16;;;;;;;20.75;18.40;;;18.10;87.80;;;;;;6226812;23;20153;-86
2022/06/05 03:24:42;;;;;;;23.30;19.57;;;18.00;87.90;;;;;;6247933;23;20163;-86
2022/06/05 03:27:07;;;;;;;23.33;20.10;;;18.00;88.40;;;;;;6248997;23;20591;-86
2022/06/05 03:29:33;;;;;;;19.20;17.40;;;18.00;87.70;;;;;;6249046;23;20176;-85
2022/06/05 03:31:59;;;;;;;22.50;18.50;;;18.00;87.80;;;;;;6248371;23;20591;-85
2022/06/05 03:34:25;;;;;;;19.07;17.20;;;18.00;87.60;;;;;;6249322;23;20188;-87
2022/06/05 03:36:50;;;;;;;18.20;16.23;;;17.90;87.60;;;;;;6249440;22;20156;-86
2022/06/05 03:39:16;;;;;;;19.87;17.80;;;17.90;87.30;;;;;;6247876;22;20400;-86
2022/06/05 03:41:42;;;;;;;18.70;16.80;;;17.90;87.00;;;;;;6248042;23;20410;-87
2022/06/05 03:44:08;;;;;;;20.03;17.93;;;17.90;86.80;;;;;;6248565;22;20394;-86
2022/06/05 03:46:35;;;;;;;19.03;17.13;;;17.90;86.60;;;;;;6248746;22;20160;-86
2022/06/05 03:49:01;;;;;;;18.10;16.20;;;17.90;86.40;;;;;;6247559;23;20187;-86
2022/06/05 03:51:27;;;;;;;21.75;19.25;;;17.80;86.30;;;;;;6249338;22;20149;-87
2022/06/05 03:53:53;;;;;;;18.23;16.33;;;17.90;86.30;;;;;;6247436;23;20188;-86
2022/06/05 03:56:22;;;;;;;19.80;17.90;;;17.80;87.20;;;;;;6248264;23;20231;-85
2022/06/05 03:58:48;;;;;;;18.50;16.52;;;17.80;86.40;;;;;;6248069;23;20478;-86
2022/06/05 04:01:16;;;;;;;18.92;16.83;;;17.80;86.80;;;;;;6248472;22;20240;-84
2022/06/05 04:03:44;;;;;;;18.42;16.52;;;17.90;86.90;;;;;;6249107;22;20172;-85
2022/06/05 04:06:12;;;;;;;18.85;15.57;;;17.80;86.70;;;;;;6248403;22;20156;-86
2022/06/05 04:08:38;;;;;;;21.80;17.63;;;17.80;86.10;;;;;;6246718;23;20251;-85
2022/06/05 04:11:09;;;;;;;18.40;16.45;;;17.90;86.20;;;;;;6247817;23;20183;-84
2022/06/05 04:13:35;;;;;;;23.60;16.83;;;17.80;86.30;;;;;;6246985;23;20176;-85
2022/06/05 04:16:01;;;;;;;17.87;14.57;;;17.90;85.60;;;;;;6248619;22;20753;-85
2022/06/05 04:18:27;;;;;;;17.30;15.50;;;17.90;85.40;;;;;;6249126;23;20734;-85
2022/06/05 04:20:53;;;;;;;18.67;16.65;;;17.90;85.30;;;;;;6249020;22;20159;-86
2022/06/05 04:23:18;;;;;;;16.97;15.13;;;17.90;84.80;;;;;;6253485;23;20160;-85
2022/06/05 04:25:45;;;;;;;20.13;15.73;;;17.80;84.70;;;;;;6256686;23;20157;-85
2022/06/05 04:28:11;;;;;;;19.80;17.00;;;17.80;84.90;;;;;;6249548;23;20696;-85
2022/06/05 04:30:38;;;;;;;18.55;16.08;;;17.70;85.40;;;;;;6247467;22;20186;-86
2022/06/05 04:33:05;;;;;;;17.80;16.00;;;17.80;85.30;;;;;;6247750;22;20622;-86
2022/06/05 04:35:32;;;;;;;20.80;16.98;;;17.80;85.20;;;;;;6248033;23;20176;-86
2022/06/05 04:37:58;;;;;;;17.75;15.25;;;17.80;85.30;;;;;;6247122;22;20176;-86
2022/06/05 04:40:24;;;;;;;19.00;16.70;;;17.80;85.20;;;;;;6248138;22;20528;-85
2022/06/05 04:42:49;;;;;;;16.30;14.63;;;17.80;85.40;;;;;;6248031;22;20184;-86
2022/06/05 04:45:15;;;;;;;19.23;17.23;;;17.80;85.00;;;;;;6247867;23;20386;-86
2022/06/05 04:47:41;;;;;;;21.17;17.00;;;17.90;85.00;;;;;;6247323;22;20178;-85
2022/06/05 04:50:08;;;;;;;17.23;15.48;;;17.80;84.70;;;;;;6246844;23;20482;-85
2022/06/05 04:52:35;;;;;;;17.90;16.05;;;17.80;84.90;;;;;;6248963;23;20160;-85
2022/06/05 04:55:01;;;;;;;18.27;16.35;;;17.90;85.40;;;;;;6249690;22;20237;-86
2022/06/05 04:57:26;;;;;;;18.57;16.67;;;17.90;85.10;;;;;;6249062;22;20172;-84
2022/06/05 04:59:52;;;;;;;19.20;17.07;;;17.90;85.00;;;;;;6252016;22;20681;-86
2022/06/05 05:02:18;;;;;;;18.83;16.83;;;17.90;84.80;;;;;;6255571;23;20151;-85
2022/06/05 05:04:47;;;;;;;17.83;16.05;;;18.00;84.50;;;;;;6254431;22;20183;-86
2022/06/05 05:07:17;;;;;;;20.40;16.85;;;18.00;84.30;;;;;;6250844;22;20163;-86
2022/06/05 05:09:43;;;;;;;17.88;15.88;;;18.00;84.10;;;;;;6251707;23;20153;-86
2022/06/05 05:12:10;;;;;;;16.73;14.83;;;18.00;84.10;;;;;;6251422;22;20161;-86
2022/06/05 05:14:37;;;;;;;17.45;15.60;;;18.10;83.50;;;;;;6248876;22;20732;-87
2022/06/05 05:17:03;;;;;;;17.20;15.40;;;18.10;83.30;;;;;;6259412;22;20153;-86
2022/06/05 05:19:29;;;;;;;17.08;14.45;;;18.20;82.50;;;;;;6256057;23;20209;-87
2022/06/05 05:21:55;;;;;;;16.37;14.80;;;18.20;82.20;;;;;;6247946;22;20235;-86
2022/06/05 05:24:21;;;;;;;18.40;15.03;;;18.30;81.80;;;;;;6246286;22;20383;-86
2022/06/05 05:26:47;;;;;;;16.80;15.07;;;18.30;81.70;;;;;;6245525;23;20288;-86
2022/06/05 05:29:13;;;;;;;16.60;14.90;;;18.30;81.10;;;;;;6244650;23;20191;-86
2022/06/05 05:31:41;;;;;;;15.88;14.20;;;18.30;80.20;;;;;;6245690;23;20383;-86
2022/06/05 05:34:07;;;;;;;15.55;14.02;;;18.40;80.40;;;;;;6221195;23;20314;-86
2022/06/05 05:36:34;;;;;;;15.40;13.70;;;18.40;79.50;;;;;;6246743;22;20157;-85
2022/06/05 05:44:48;;;;;;;15.77;14.20;;;18.40;78.90;;;;;;6248293;23;20179;-86
2022/06/05 05:47:20;;;;;;;15.20;13.70;;;18.40;78.50;;;;;;6247832;22;20234;-85
2022/06/05 05:49:50;;;;;;;15.60;14.20;;;18.30;78.70;;;;;;6248051;22;20159;-86
2022/06/05 05:52:16;;;;;;;16.67;14.75;;;18.40;78.40;;;;;;6248074;22;20156;-85
2022/06/05 05:54:41;;;;;;;15.23;13.73;;;18.40;77.60;;;;;;6221111;23;20181;-86
2022/06/05 05:57:08;;;;;;;18.57;13.57;;;18.40;77.90;;;;;;6245839;22;20716;-86
2022/06/05 05:59:35;;;;;;;13.95;12.55;;;18.40;77.90;;;;;;6246271;22;20160;-85
2022/06/05 06:02:01;;;;;;;17.63;14.13;;;18.40;77.90;;;;;;6250531;22;20152;-86
2022/06/05 06:04:27;;;;;;;15.57;14.05;;;18.50;77.40;;;;;;6246845;23;20214;-86
2022/06/05 06:06:53;;;;;;;13.70;12.30;;;18.50;77.60;;;;;;6247304;22;20148;-85
2022/06/05 06:09:19;;;;;;;18.13;14.10;;;18.50;77.80;;;;;;6246162;23;20251;-85
2022/06/05 06:11:46;;;;;;;15.93;12.95;;;18.60;77.50;;;;;;6246264;22;20156;-85
2022/06/05 06:14:12;;;;;;;15.60;14.07;;;18.60;77.20;;;;;;6245671;23;20211;-85
2022/06/05 06:16:38;;;;;;;14.83;13.33;;;18.70;78.30;;;;;;6247624;22;20206;-86
2022/06/05 06:19:04;;;;;;;14.02;12.60;;;18.70;78.00;;;;;;6220866;23;20180;-85
2022/06/05 06:21:30;;;;;;;14.32;12.98;;;18.90;76.90;;;;;;6245953;23;20148;-86
2022/06/05 06:23:56;;;;;;;16.73;14.63;;;18.90;76.50;;;;;;6248168;22;20464;-85
2022/06/05 06:26:22;;;;;;;16.33;13.03;;;18.90;76.70;;;;;;6248050;22;20249;-85
2022/06/05 06:28:48;;;;;;;13.70;12.30;;;18.90;76.20;;;;;;6247912;22;20179;-85
2022/06/05 06:31:16;;;;;;;19.70;13.68;;;18.90;76.60;;;;;;6245787;22;20618;-84
2022/06/05 06:33:42;;;;;;;14.85;12.93;;;19.00;76.30;;;;;;6247316;22;20638;-84
2022/06/05 06:36:11;;;;;;;14.95;13.55;;;19.00;76.00;;;;;;6245962;23;20157;-85
2022/06/05 06:38:37;;;;;;;14.55;13.07;;;19.00;76.30;;;;;;6247084;22;20172;-84
2022/06/05 06:41:08;;;;;;;15.50;12.40;;;19.10;76.50;;;;;;6245876;23;20486;-85
2022/06/05 06:43:36;;;;;;;13.55;12.07;;;19.20;77.00;;;;;;6247602;22;20145;-85
2022/06/05 06:46:03;;;;;;;13.98;12.57;;;19.30;76.70;;;;;;6246915;23;20170;-85
2022/06/05 06:48:29;;;;;;;14.90;13.48;;;19.60;75.10;;;;;;6249500;22;20554;-85
2022/06/05 06:50:59;;;;;;;18.73;11.93;;;19.80;74.00;;;;;;6245970;22;20160;-85
2022/06/05 06:53:26;;;;;;;14.48;12.15;;;19.90;73.60;;;;;;6247069;23;20699;-86
2022/06/05 06:55:52;;;;;;;12.70;11.40;;;20.00;73.30;;;;;;6222232;23;20203;-86
2022/06/05 06:58:18;;;;;;;13.10;11.50;;;20.20;72.90;;;;;;6255306;22;20411;-85
2022/06/05 07:00:44;;;;;;;12.87;11.67;;;20.30;72.00;;;;;;6247657;23;20375;-85
2022/06/05 07:03:11;;;;;;;14.30;10.97;;;20.50;71.80;;;;;;6247431;23;20972;-84
2022/06/05 07:05:37;;;;;;;11.80;10.70;;;20.80;70.70;;;;;;6246992;23;20460;-85
2022/06/05 07:08:04;;;;;;;14.40;12.90;;;21.10;70.40;;;;;;6246903;22;20427;-85
2022/06/05 07:10:30;;;;;;;12.90;11.60;;;21.40;68.00;;;;;;6248495;22;20379;-84
2022/06/05 07:12:56;;;;;;;12.30;11.10;;;21.40;68.50;;;;;;6247151;22;20433;-84
2022/06/05 07:15:22;;;;;;;11.70;9.97;;;21.60;68.40;;;;;;6253079;22;20371;-85
2022/06/05 07:17:47;;;;;;;14.20;11.33;;;22.00;66.50;;;;;;6253234;22;20259;-85
2022/06/05 07:20:14;;;;;;;13.10;11.30;;;22.40;65.30;;;;;;6252740;22;20224;-86
2022/06/05 07:22:40;;;;;;;16.30;10.87;;;22.40;65.20;;;;;;6254158;22;20236;-85
2022/06/05 07:25:06;;;;;;;14.13;12.73;;;22.60;64.90;;;;;;6251757;23;20437;-85
2022/06/05 07:27:32;;;;;;;12.70;11.50;;;22.50;63.70;;;;;;6250015;22;20436;-85
2022/06/05 07:29:58;;;;;;;12.77;11.57;;;22.40;64.40;;;;;;6248494;23;20376;-92
2022/06/05 07:32:24;;;;;;;11.83;10.63;;;22.50;63.40;;;;;;6248188;23;20406;-91
2022/06/05 07:34:50;;;;;;;13.40;12.00;;;22.50;63.70;;;;;;6250314;22;20610;-91
2022/06/05 07:37:16;;;;;;;27.40;12.27;;;22.50;62.70;;;;;;6248740;22;20374;-90
2022/06/05 07:39:43;;;;;;;15.03;13.40;;;22.70;62.30;;;;;;6247350;23;20161;-90
2022/06/05 07:42:11;;;;;;;11.97;10.90;;;22.50;62.90;;;;;;6247856;22;20458;-90
2022/06/05 07:44:37;;;;;;;14.07;12.77;;;22.50;64.30;;;;;;6246316;22;20376;-89
2022/06/05 07:47:07;;;;;;;13.97;12.60;;;22.80;63.90;;;;;;6247254;22;20383;-90
2022/06/05 07:50:17;;;;;;;12.40;11.10;;;23.10;62.30;;;;;;6247949;23;20376;-89
2022/06/05 07:55:27;;;;;;;12.10;10.80;;;23.20;62.30;;;;;;6246314;23;20355;-90
2022/06/05 07:57:53;;;;;;;10.40;9.50;;;23.40;62.90;;;;;;6219709;23;20440;-90
2022/06/05 08:00:21;;;;;;;11.20;10.20;;;23.70;63.40;;;;;;6245305;23;20155;-90
2022/06/05 08:02:48;;;;;;;15.50;14.10;;;24.00;62.90;;;;;;6220625;23;20878;-89
2022/06/05 08:05:13;;;;;;;15.50;14.10;;;23.60;64.80;;;;;;6261465;22;20375;-91
2022/06/05 08:07:39;;;;;;;17.03;15.43;;;23.10;65.20;;;;;;6263031;23;20454;-90
2022/06/05 08:10:06;;;;;;;14.93;13.60;;;22.90;67.30;;;;;;6248569;23;20168;-90
2022/06/05 08:12:35;;;;;;;14.43;13.07;;;22.70;68.70;;;;;;6246595;22;20243;-91
2022/06/05 08:15:12;;;;;;;13.07;11.73;;;22.90;66.70;;;;;;6245808;22;20412;-91
2022/06/05 08:17:48;;;;;;;12.10;11.00;;;23.30;63.40;;;;;;6246008;23;20399;-90
2022/06/05 08:20:14;;;;;;;15.87;14.43;;;23.70;60.60;;;;;;6244802;23;20384;-90
2022/06/05 08:22:40;;;;;;;14.80;13.53;;;23.50;64.10;;;;;;6244073;22;20441;-91
2022/06/05 08:25:06;;;;;;;17.93;13.70;;;23.10;64.80;;;;;;6219990;23;20877;-90
2022/06/05 08:27:32;;;;;;;13.77;12.53;;;23.00;65.70;;;;;;6243648;23;20172;-90
2022/06/05 08:29:58;;;;;;;17.80;16.00;;;22.90;66.30;;;;;;6243530;23;20849;-90
2022/06/05 08:32:28;;;;;;;16.70;15.20;;;22.90;66.40;;;;;;6244181;22;20599;-91
2022/06/05 08:34:54;;;;;;;14.63;13.23;;;23.10;63.80;;;;;;6245486;23;20388;-93
2022/06/05 08:43:36;;;;;;;15.30;13.83;;;23.60;62.60;;;;;;6250204;23;20402;-91
2022/06/05 08:46:10;;;;;;;15.97;14.57;;;23.30;64.10;;;;;;6247020;23;20401;-92
2022/06/05 08:48:51;;;;;;;16.27;14.57;;;23.40;63.60;;;;;;6247150;23;20439;-93
2022/06/05 08:51:54;;;;;;;14.93;13.63;;;23.20;65.00;;;;;;6247650;22;20370;-92
2022/06/05 08:54:30;;;;;;;16.73;15.13;;;23.20;65.70;;;;;;6247726;23;20431;-85
2022/06/05 08:57:03;;;;;;;16.40;14.70;;;23.00;65.70;;;;;;6246207;23;20379;-86
2022/06/05 08:59:29;;;;;;;17.93;16.23;;;23.00;64.60;;;;;;6247034;23;20384;-86
2022/06/05 09:02:17;;;;;;;18.47;15.60;;;22.80;65.10;;;;;;6246079;22;20387;-89
2022/06/05 09:04:52;;;;;;;16.20;14.60;;;22.60;66.20;;;;;;6246443;23;20156;-89
2022/06/05 09:07:43;;;;;;;18.77;16.87;;;22.50;67.60;;;;;;6254774;22;20378;-93
2022/06/05 09:10:21;;;;;;;17.53;14.90;;;22.10;67.20;;;;;;6234710;23;20414;-91
2022/06/05 09:13:16;;;;;;;16.60;15.00;;;22.10;67.70;;;;;;6248802;22;20371;-91
2022/06/05 09:15:51;;;;;;;20.10;16.50;;;22.10;68.10;;;;;;6247623;22;20923;-92
2022/06/05 09:18:21;;;;;;;18.00;16.20;;;22.10;69.30;;;;;;6249228;22;20397;-92
2022/06/05 09:20:53;;;;;;;17.30;15.70;;;22.10;69.10;;;;;;6248006;23;20380;-92
2022/06/05 09:23:28;;;;;;;18.30;16.27;;;22.40;66.20;;;;;;6249157;23;20379;-92
2022/06/05 09:26:03;;;;;;;20.58;18.48;;;22.60;66.20;;;;;;6247628;23;20804;-92
2022/06/05 09:28:51;;;;;;;19.37;17.57;;;22.40;67.40;;;;;;6250227;22;20534;-90
2022/06/05 09:31:48;;;;;;;19.93;17.33;;;22.30;67.10;;;;;;6254835;23;20425;-89
2022/06/05 09:34:20;;;;;;;14.73;13.23;;;22.50;64.60;;;;;;6251903;23;20429;-89
2022/06/05 09:37:08;;;;;;;17.93;16.13;;;22.70;65.20;;;;;;6252625;23;20851;-90
2022/06/05 09:39:45;;;;;;;18.33;16.50;;;22.80;63.80;;;;;;6253904;23;20379;-89
2022/06/05 09:42:48;;;;;;;17.17;15.43;;;22.50;65.80;;;;;;6223425;23;20917;-89
2022/06/05 09:45:22;;;;;;;16.10;14.60;;;22.60;64.90;;;;;;6247110;23;20375;-89
2022/06/05 09:48:17;;;;;;;18.20;16.53;;;22.60;64.60;;;;;;6247823;22;20402;-90
2022/06/05 09:50:43;;;;;;;20.50;18.60;;;22.20;67.00;;;;;;6245786;23;20944;-90
2022/06/05 09:53:15;;;;;;;18.07;16.47;;;22.00;69.60;;;;;;6245247;23;20462;-85
2022/06/05 09:55:55;;;;;;;19.07;17.20;;;22.00;68.80;;;;;;6249628;22;20129;-86
2022/06/05 09:58:45;;;;;;;20.50;18.50;;;22.10;67.90;;;;;;6246087;23;20482;-85
2022/06/05 10:01:30;;;;;;;18.30;16.70;;;22.20;68.90;;;;;;6248203;22;20704;-85
2022/06/05 10:04:03;;;;;;;19.70;17.70;;;22.10;68.80;;;;;;6246784;23;20869;-85
2022/06/05 10:06:48;;;;;;;20.37;18.40;;;22.00;70.00;;;;;;6246968;23;20478;-85
2022/06/05 10:09:19;;;;;;;19.70;17.70;;;21.90;70.20;;;;;;6248376;22;20451;-84
2022/06/05 10:12:10;;;;;;;18.80;16.90;;;21.90;72.30;;;;;;6246919;23;20441;-84
2022/06/05 10:14:47;;;;;;;18.80;17.00;;;21.80;73.40;;;;;;6250020;22;20411;-85
2022/06/05 10:17:31;;;;;;;22.20;19.67;;;21.70;75.50;;;;;;6246437;23;20383;-85
2022/06/05 10:20:36;;;;;;;22.03;19.77;;;21.50;75.50;;;;;;6247123;23;20383;-85
2022/06/05 10:23:26;;;;;;;22.50;19.27;;;21.30;76.30;;;;;;6250448;23;20371;-86
2022/06/05 10:25:58;;;;;;;22.40;19.80;;;21.20;77.20;;;;;;6248773;23;20394;-85
2022/06/05 10:28:30;;;;;;;21.40;19.20;;;21.00;78.70;;;;;;6247356;22;20439;-85
2022/06/05 10:31:01;;;;;;;22.83;19.63;;;21.00;79.40;;;;;;6248923;22;20375;-85
2022/06/05 10:33:41;;;;;;;22.70;20.30;;;21.00;80.80;;;;;;6246746;23;20761;-85
2022/06/05 10:36:17;;;;;;;26.23;23.67;;;20.80;82.70;;;;;;6221509;23;20376;-86
2022/06/05 10:39:14;;;;;;;24.50;21.90;;;20.80;84.10;;;;;;6247100;23;20482;-85
2022/06/05 10:42:03;;;;;;;30.00;25.23;;;20.70;85.70;;;;;;6247151;23;20833;-87
2022/06/05 10:44:38;;;;;;;32.80;27.00;;;20.60;87.20;;;;;;6230930;23;20470;-86
2022/06/05 10:47:16;;;;;;;31.07;27.70;;;20.40;88.80;;;;;;6249297;22;20412;-84
2022/06/05 10:50:10;;;;;;;37.73;29.80;;;20.20;90.00;;;;;;6249504;23;20427;-85
2022/06/05 10:53:05;;;;;;;42.60;30.77;;;20.00;91.40;;;;;;6248000;22;20383;-85
2022/06/05 10:55:56;;;;;;;42.10;32.00;;;20.00;92.90;;;;;;6248130;23;20364;-85
2022/06/05 10:58:43;;;;;;;36.45;30.70;;;19.90;94.10;;;;;;6247426;23;20208;-85
2022/06/05 11:01:26;;;;;;;53.10;35.00;;;19.80;94.90;;;;;;6247677;23;20199;-85
2022/06/05 11:04:24;;;;;;;44.10;35.20;;;19.70;95.60;;;;;;6245910;22;20200;-85
2022/06/05 11:07:13;;;;;;;44.88;38.50;;;19.70;96.30;;;;;;6246198;23;20152;-85
2022/06/05 11:09:48;;;;;;;52.80;38.92;;;19.60;96.70;;;;;;6246489;23;20155;-84
2022/06/05 11:15:45;;;;;;;51.95;39.78;;;19.50;98.20;;;;;;6248365;23;20160;-85
2022/06/05 11:18:21;;;;;;;56.55;40.97;;;19.40;99.00;;;;;;6246869;23;20628;-85
2022/06/05 11:21:16;;;;;;;62.53;44.80;;;19.40;99.70;;;;;;6246665;22;20235;-85
2022/06/05 11:23:44;;;;;;;62.50;45.70;;;19.30;99.90;;;;;;6219020;23;20167;-85
2022/06/05 11:26:32;;;;;;;67.53;47.17;;;19.30;99.90;;;;;;6247959;23;20144;-86
2022/06/05 11:29:04;;;;;;;73.45;50.83;;;19.20;99.90;;;;;;6248010;23;20165;-85
2022/06/05 11:32:08;;;;;;;73.07;48.90;;;19.20;99.90;;;;;;6249990;22;20145;-86
2022/06/05 11:34:34;;;;;;;66.38;49.10;;;19.10;99.90;;;;;;6183136;22;20191;-86
2022/06/05 11:37:31;;;;;;;75.20;50.80;;;19.10;99.90;;;;;;6249566;23;20152;-86
2022/06/05 11:40:04;;;;;;;68.63;48.92;;;19.10;99.90;;;;;;6247878;22;20163;-86
2022/06/05 11:42:43;;;;;;;83.43;49.85;;;19.00;99.90;;;;;;6249569;23;20154;-86
2022/06/05 11:45:34;;;;;;;73.32;47.15;;;18.90;99.90;;;;;;6250512;23;20145;-86
2022/06/05 11:48:23;;;;;;;75.07;50.45;;;18.80;99.90;;;;;;6249856;23;20181;-85
2022/06/05 11:51:03;;;;;;;70.35;46.00;;;18.80;99.90;;;;;;6251530;23;20704;-87
2022/06/05 11:53:32;;;;;;;72.03;45.03;;;18.80;99.90;;;;;;6249970;23;20227;-87
2022/06/05 11:56:32;;;;;;;67.18;47.13;;;18.80;99.90;;;;;;6247865;23;20180;-86
2022/06/05 11:59:16;;;;;;;70.20;49.20;;;18.80;99.90;;;;;;6247913;23;20173;-87
2022/06/05 12:01:46;;;;;;;63.15;44.65;;;18.80;99.90;;;;;;6248217;23;20151;-87
2022/06/05 12:04:38;;;;;;;70.20;49.90;;;18.80;99.90;;;;;;6247511;23;20158;-87
2022/06/05 12:07:06;;;;;;;74.50;49.30;;;18.80;99.90;;;;;;6190371;23;20564;-87
2022/06/05 12:09:40;;;;;;;81.65;50.55;;;18.80;99.90;;;;;;6248941;23;20168;-86
2022/06/05 12:12:31;;;;;;;71.90;48.22;;;18.70;99.90;;;;;;6249822;22;20136;-86
2022/06/05 12:15:18;;;;;;;86.70;53.83;;;18.70;99.90;;;;;;6247594;23;20184;-86
2022/06/05 12:18:00;;;;;;;66.40;47.10;;;18.70;99.90;;;;;;6249546;23;20176;-86
2022/06/05 12:20:48;;;;;;;87.30;52.05;;;18.70;99.90;;;;;;6247759;23;20148;-87
2022/06/05 12:23:34;;;;;;;78.03;47.90;;;18.70;99.90;;;;;;6246617;23;20196;-87
2022/06/05 12:26:14;;;;;;;60.90;41.88;;;18.60;99.90;;;;;;6223997;23;20218;-86
2022/06/05 12:28:52;;;;;;;60.72;42.38;;;18.60;99.90;;;;;;6249231;22;20172;-85
2022/06/05 12:31:28;;;;;;;54.65;40.20;;;18.60;99.90;;;;;;6250686;22;20172;-86
2022/06/05 12:34:12;;;;;;;72.32;46.45;;;18.60;99.90;;;;;;6248302;23;20207;-85
2022/06/05 12:36:44;;;;;;;65.18;45.30;;;18.60;99.90;;;;;;6224660;23;20140;-86
2022/06/05 12:39:26;;;;;;;61.88;44.38;;;18.60;99.90;;;;;;6249238;23;20172;-87
2022/06/05 12:42:11;;;;;;;63.40;42.25;;;18.50;99.90;;;;;;6257260;23;20136;-87
2022/06/05 12:44:43;;;;;;;66.00;45.42;;;18.50;99.90;;;;;;6256352;23;20183;-87
2022/06/05 12:47:45;;;;;;;66.50;45.35;;;18.50;99.90;;;;;;6257099;22;20153;-87
2022/06/05 12:50:20;;;;;;;72.20;49.25;;;18.40;99.90;;;;;;6257912;23;20148;-87
2022/06/05 12:52:52;;;;;;;76.65;51.08;;;18.40;99.90;;;;;;6247874;23;20145;-87
2022/06/05 12:55:32;;;;;;;57.95;44.35;;;18.30;99.90;;;;;;6248510;22;20157;-87
2022/06/05 12:58:14;;;;;;;71.38;49.05;;;18.20;99.90;;;;;;6248141;23;20203;-87
2022/06/05 13:00:56;;;;;;;71.32;48.50;;;18.20;99.90;;;;;;6248985;22;20144;-86
2022/06/05 13:03:44;;;;;;;63.00;45.17;;;18.20;99.90;;;;;;6249442;23;20145;-86
2022/06/05 13:06:40;;;;;;;70.25;47.42;;;18.20;99.90;;;;;;6249433;23;20158;-86
2022/06/05 13:09:30;;;;;;;62.03;44.67;;;18.20;99.90;;;;;;6247902;23;20203;-86
2022/06/05 13:12:07;;;;;;;60.70;45.30;;;18.20;99.90;;;;;;6247709;23;20237;-87
2022/06/05 13:15:04;;;;;;;72.47;50.85;;;18.10;99.90;;;;;;6249014;22;20184;-87
2022/06/05 13:17:45;;;;;;;66.93;47.58;;;18.10;99.90;;;;;;6249070;22;20165;-87
2022/06/05 13:20:53;;;;;;;66.03;46.90;;;18.10;99.90;;;;;;6248776;23;20133;-86
2022/06/05 13:23:37;;;;;;;65.85;49.33;;;18.10;99.90;;;;;;6178419;23;20169;-87